sensor_id;sensor_type;location;lat;lon;timestamp;P1;durP1;ratioP1;P2;durP2;ratioP2
58615;SDS011;44385;51.992;4.206;2023-04-24T00:00:39;5.25;;;2.60;;
58615;SDS011;44385;51.992;4.206;2023-04-24T00:03:07;5.60;;;3.00;;
58615;SDS011;44385;51.992;4.206;2023-04-24T00:05:33;8.18;;;2.40;;
58615;SDS011;44385;51.992;4.206;2023-04-24T00:08:00;13.55;;;2.88;;
58615;SDS011;44385;51.992;4.206;2023-04-24T00:10:29;6.80;;;2.17;;
58615;SDS011;44385;51.992;4.206;2023-04-24T00:12:56;7.07;;;2.25;;
58615;SDS011;44385;51.992;4.206;2023-04-24T00:15:22;7.80;;;3.35;;
58615;SDS011;44385;51.992;4.206;2023-04-24T00:17:51;7.60;;;2.70;;
58615;SDS011;44385;51.992;4.206;2023-04-24T00:20:18;4.72;;;2.25;;
58615;SDS011;44385;51.992;4.206;2023-04-24T00:22:44;4.70;;;2.17;;
58615;SDS011;44385;51.992;4.206;2023-04-24T00:25:11;6.75;;;2.85;;
58615;SDS011;44385;51.992;4.206;2023-04-24T00:27:42;7.82;;;2.80;;
58615;SDS011;44385;51.992;4.206;2023-04-24T00:30:09;3.22;;;2.08;;
58615;SDS011;44385;51.992;4.206;2023-04-24T00:32:36;4.38;;;1.50;;
58615;SDS011;44385;51.992;4.206;2023-04-24T00:35:02;3.15;;;1.63;;
58615;SDS011;44385;51.992;4.206;2023-04-24T00:37:29;3.22;;;1.13;;
58615;SDS011;44385;51.992;4.206;2023-04-24T00:39:56;2.00;;;1.42;;
58615;SDS011;44385;51.992;4.206;2023-04-24T00:42:22;1.02;;;0.70;;
58615;SDS011;44385;51.992;4.206;2023-04-24T00:44:51;3.28;;;1.08;;
58615;SDS011;44385;51.992;4.206;2023-04-24T00:47:17;1.95;;;1.13;;
58615;SDS011;44385;51.992;4.206;2023-04-24T00:49:45;1.52;;;0.70;;
58615;SDS011;44385;51.992;4.206;2023-04-24T00:52:12;1.73;;;0.75;;
58615;SDS011;44385;51.992;4.206;2023-04-24T00:54:42;2.45;;;0.73;;
58615;SDS011;44385;51.992;4.206;2023-04-24T00:57:09;0.95;;;0.70;;
58615;SDS011;44385;51.992;4.206;2023-04-24T00:59:35;4.10;;;0.85;;
58615;SDS011;44385;51.992;4.206;2023-04-24T01:02:04;1.65;;;0.85;;
58615;SDS011;44385;51.992;4.206;2023-04-24T01:04:32;3.38;;;1.30;;
58615;SDS011;44385;51.992;4.206;2023-04-24T01:06:58;2.13;;;1.17;;
58615;SDS011;44385;51.992;4.206;2023-04-24T01:09:25;1.88;;;1.17;;
58615;SDS011;44385;51.992;4.206;2023-04-24T01:11:52;6.80;;;1.70;;
58615;SDS011;44385;51.992;4.206;2023-04-24T01:14:19;7.30;;;1.63;;
58615;SDS011;44385;51.992;4.206;2023-04-24T01:16:46;6.13;;;1.90;;
58615;SDS011;44385;51.992;4.206;2023-04-24T01:19:17;4.63;;;2.00;;
58615;SDS011;44385;51.992;4.206;2023-04-24T01:21:44;7.60;;;2.40;;
58615;SDS011;44385;51.992;4.206;2023-04-24T01:24:16;4.57;;;2.08;;
58615;SDS011;44385;51.992;4.206;2023-04-24T01:26:44;4.53;;;2.25;;
58615;SDS011;44385;51.992;4.206;2023-04-24T01:29:13;5.07;;;2.30;;
58615;SDS011;44385;51.992;4.206;2023-04-24T01:31:40;3.65;;;1.83;;
58615;SDS011;44385;51.992;4.206;2023-04-24T01:34:07;5.63;;;2.58;;
58615;SDS011;44385;51.992;4.206;2023-04-24T01:36:34;5.20;;;2.60;;
58615;SDS011;44385;51.992;4.206;2023-04-24T01:39:01;5.18;;;2.65;;
58615;SDS011;44385;51.992;4.206;2023-04-24T01:41:32;5.85;;;3.28;;
58615;SDS011;44385;51.992;4.206;2023-04-24T01:43:58;8.27;;;3.13;;
58615;SDS011;44385;51.992;4.206;2023-04-24T01:46:25;8.00;;;3.78;;
58615;SDS011;44385;51.992;4.206;2023-04-24T01:48:52;4.50;;;2.83;;
58615;SDS011;44385;51.992;4.206;2023-04-24T01:51:18;6.78;;;2.60;;
58615;SDS011;44385;51.992;4.206;2023-04-24T01:53:44;6.13;;;3.28;;
58615;SDS011;44385;51.992;4.206;2023-04-24T01:56:13;3.13;;;2.60;;
58615;SDS011;44385;51.992;4.206;2023-04-24T01:58:44;9.15;;;3.50;;
58615;SDS011;44385;51.992;4.206;2023-04-24T02:01:14;7.38;;;3.25;;
58615;SDS011;44385;51.992;4.206;2023-04-24T02:03:41;6.93;;;2.97;;
58615;SDS011;44385;51.992;4.206;2023-04-24T02:06:07;6.50;;;2.97;;
58615;SDS011;44385;51.992;4.206;2023-04-24T02:08:34;7.90;;;2.90;;
58615;SDS011;44385;51.992;4.206;2023-04-24T02:11:00;9.57;;;3.97;;
58615;SDS011;44385;51.992;4.206;2023-04-24T02:13:27;7.32;;;2.85;;
58615;SDS011;44385;51.992;4.206;2023-04-24T02:15:57;5.32;;;2.70;;
58615;SDS011;44385;51.992;4.206;2023-04-24T02:18:24;7.30;;;2.85;;
58615;SDS011;44385;51.992;4.206;2023-04-24T02:20:50;7.53;;;2.65;;
58615;SDS011;44385;51.992;4.206;2023-04-24T02:23:17;8.73;;;2.22;;
58615;SDS011;44385;51.992;4.206;2023-04-24T02:25:43;5.72;;;2.08;;
58615;SDS011;44385;51.992;4.206;2023-04-24T02:28:10;5.97;;;2.65;;
58615;SDS011;44385;51.992;4.206;2023-04-24T02:30:37;6.85;;;2.22;;
58615;SDS011;44385;51.992;4.206;2023-04-24T02:33:05;5.97;;;2.50;;
58615;SDS011;44385;51.992;4.206;2023-04-24T02:35:32;8.02;;;2.40;;
58615;SDS011;44385;51.992;4.206;2023-04-24T02:37:58;8.38;;;3.05;;
58615;SDS011;44385;51.992;4.206;2023-04-24T02:40:25;6.22;;;2.70;;
58615;SDS011;44385;51.992;4.206;2023-04-24T02:42:51;4.80;;;2.00;;
58615;SDS011;44385;51.992;4.206;2023-04-24T02:45:18;5.65;;;2.53;;
58615;SDS011;44385;51.992;4.206;2023-04-24T02:47:44;8.57;;;2.47;;
58615;SDS011;44385;51.992;4.206;2023-04-24T02:50:12;2.53;;;1.45;;
58615;SDS011;44385;51.992;4.206;2023-04-24T02:52:39;3.65;;;1.75;;
58615;SDS011;44385;51.992;4.206;2023-04-24T02:55:06;5.57;;;1.45;;
58615;SDS011;44385;51.992;4.206;2023-04-24T02:57:33;5.50;;;1.48;;
58615;SDS011;44385;51.992;4.206;2023-04-24T02:59:59;6.22;;;1.83;;
58615;SDS011;44385;51.992;4.206;2023-04-24T03:02:26;5.93;;;1.40;;
58615;SDS011;44385;51.992;4.206;2023-04-24T03:04:52;9.55;;;2.28;;
58615;SDS011;44385;51.992;4.206;2023-04-24T03:07:21;18.83;;;3.08;;
58615;SDS011;44385;51.992;4.206;2023-04-24T03:09:49;11.65;;;2.90;;
58615;SDS011;44385;51.992;4.206;2023-04-24T03:12:16;15.63;;;3.30;;
58615;SDS011;44385;51.992;4.206;2023-04-24T03:14:42;19.98;;;3.95;;
58615;SDS011;44385;51.992;4.206;2023-04-24T03:17:09;20.35;;;3.63;;
58615;SDS011;44385;51.992;4.206;2023-04-24T03:19:35;20.80;;;3.72;;
58615;SDS011;44385;51.992;4.206;2023-04-24T03:22:02;12.10;;;3.40;;
58615;SDS011;44385;51.992;4.206;2023-04-24T03:24:30;16.20;;;3.72;;
58615;SDS011;44385;51.992;4.206;2023-04-24T03:26:57;19.13;;;3.22;;
58615;SDS011;44385;51.992;4.206;2023-04-24T03:29:23;12.23;;;3.17;;
58615;SDS011;44385;51.992;4.206;2023-04-24T03:31:50;12.40;;;2.78;;
58615;SDS011;44385;51.992;4.206;2023-04-24T03:34:17;16.10;;;3.05;;
58615;SDS011;44385;51.992;4.206;2023-04-24T03:36:44;12.43;;;2.78;;
58615;SDS011;44385;51.992;4.206;2023-04-24T03:39:15;11.82;;;2.92;;
58615;SDS011;44385;51.992;4.206;2023-04-24T03:41:43;12.07;;;2.95;;
58615;SDS011;44385;51.992;4.206;2023-04-24T03:44:09;14.00;;;3.05;;
58615;SDS011;44385;51.992;4.206;2023-04-24T03:46:36;18.77;;;5.65;;
58615;SDS011;44385;51.992;4.206;2023-04-24T03:49:02;25.27;;;8.57;;
58615;SDS011;44385;51.992;4.206;2023-04-24T03:51:29;15.50;;;7.05;;
58615;SDS011;44385;51.992;4.206;2023-04-24T03:53:56;15.85;;;7.03;;
58615;SDS011;44385;51.992;4.206;2023-04-24T03:56:23;22.85;;;7.97;;
58615;SDS011;44385;51.992;4.206;2023-04-24T03:58:51;18.67;;;7.60;;
58615;SDS011;44385;51.992;4.206;2023-04-24T04:01:17;14.88;;;7.60;;
58615;SDS011;44385;51.992;4.206;2023-04-24T04:03:45;25.38;;;8.80;;
58615;SDS011;44385;51.992;4.206;2023-04-24T04:06:12;23.55;;;8.23;;
58615;SDS011;44385;51.992;4.206;2023-04-24T04:08:39;25.25;;;8.57;;
58615;SDS011;44385;51.992;4.206;2023-04-24T04:11:05;18.48;;;7.80;;
58615;SDS011;44385;51.992;4.206;2023-04-24T04:13:32;21.25;;;9.20;;
58615;SDS011;44385;51.992;4.206;2023-04-24T04:16:00;22.63;;;8.52;;
58615;SDS011;44385;51.992;4.206;2023-04-24T04:18:26;16.38;;;8.20;;
58615;SDS011;44385;51.992;4.206;2023-04-24T04:20:52;24.80;;;9.67;;
58615;SDS011;44385;51.992;4.206;2023-04-24T04:23:19;19.13;;;8.77;;
58615;SDS011;44385;51.992;4.206;2023-04-24T04:25:45;19.58;;;11.25;;
58615;SDS011;44385;51.992;4.206;2023-04-24T04:28:13;18.95;;;9.68;;
58615;SDS011;44385;51.992;4.206;2023-04-24T04:30:40;22.38;;;9.27;;
58615;SDS011;44385;51.992;4.206;2023-04-24T04:33:08;25.13;;;11.50;;
58615;SDS011;44385;51.992;4.206;2023-04-24T04:35:35;31.10;;;14.00;;
58615;SDS011;44385;51.992;4.206;2023-04-24T04:38:02;31.58;;;14.77;;
58615;SDS011;44385;51.992;4.206;2023-04-24T04:40:30;30.58;;;13.82;;
58615;SDS011;44385;51.992;4.206;2023-04-24T04:43:00;29.60;;;13.82;;
58615;SDS011;44385;51.992;4.206;2023-04-24T04:45:27;31.35;;;14.77;;
58615;SDS011;44385;51.992;4.206;2023-04-24T04:47:55;34.40;;;14.55;;
58615;SDS011;44385;51.992;4.206;2023-04-24T04:50:23;27.95;;;13.98;;
58615;SDS011;44385;51.992;4.206;2023-04-24T04:52:50;40.20;;;15.27;;
58615;SDS011;44385;51.992;4.206;2023-04-24T04:55:16;34.88;;;15.02;;
58615;SDS011;44385;51.992;4.206;2023-04-24T04:57:43;37.60;;;15.85;;
58615;SDS011;44385;51.992;4.206;2023-04-24T05:00:10;35.05;;;16.63;;
58615;SDS011;44385;51.992;4.206;2023-04-24T05:02:41;27.23;;;15.68;;
58615;SDS011;44385;51.992;4.206;2023-04-24T05:05:07;34.85;;;17.80;;
58615;SDS011;44385;51.992;4.206;2023-04-24T05:07:35;40.25;;;17.45;;
58615;SDS011;44385;51.992;4.206;2023-04-24T05:10:02;33.95;;;15.07;;
58615;SDS011;44385;51.992;4.206;2023-04-24T05:12:29;34.15;;;15.88;;
58615;SDS011;44385;51.992;4.206;2023-04-24T05:14:58;29.65;;;15.77;;
58615;SDS011;44385;51.992;4.206;2023-04-24T05:17:24;35.88;;;14.93;;
58615;SDS011;44385;51.992;4.206;2023-04-24T05:19:51;29.33;;;15.20;;
58615;SDS011;44385;51.992;4.206;2023-04-24T05:22:17;32.33;;;15.32;;
58615;SDS011;44385;51.992;4.206;2023-04-24T05:24:47;29.40;;;14.73;;
58615;SDS011;44385;51.992;4.206;2023-04-24T05:27:20;25.38;;;14.52;;
58615;SDS011;44385;51.992;4.206;2023-04-24T05:29:47;36.65;;;14.93;;
58615;SDS011;44385;51.992;4.206;2023-04-24T05:32:16;31.43;;;15.97;;
58615;SDS011;44385;51.992;4.206;2023-04-24T05:34:42;33.92;;;13.60;;
58615;SDS011;44385;51.992;4.206;2023-04-24T05:37:08;31.00;;;11.38;;
58615;SDS011;44385;51.992;4.206;2023-04-24T05:39:37;29.40;;;9.98;;
58615;SDS011;44385;51.992;4.206;2023-04-24T05:42:05;28.85;;;10.15;;
58615;SDS011;44385;51.992;4.206;2023-04-24T05:44:31;33.88;;;9.52;;
58615;SDS011;44385;51.992;4.206;2023-04-24T05:46:58;28.63;;;8.85;;
58615;SDS011;44385;51.992;4.206;2023-04-24T05:49:24;21.70;;;9.30;;
58615;SDS011;44385;51.992;4.206;2023-04-24T05:51:51;41.67;;;9.88;;
58615;SDS011;44385;51.992;4.206;2023-04-24T05:54:17;28.83;;;10.20;;
58615;SDS011;44385;51.992;4.206;2023-04-24T05:56:43;21.08;;;9.65;;
58615;SDS011;44385;51.992;4.206;2023-04-24T05:59:16;32.63;;;9.30;;
58615;SDS011;44385;51.992;4.206;2023-04-24T06:01:42;25.15;;;9.38;;
58615;SDS011;44385;51.992;4.206;2023-04-24T06:04:09;27.27;;;8.50;;
58615;SDS011;44385;51.992;4.206;2023-04-24T06:06:36;26.77;;;8.82;;
58615;SDS011;44385;51.992;4.206;2023-04-24T06:09:02;22.08;;;8.10;;
58615;SDS011;44385;51.992;4.206;2023-04-24T06:11:30;24.23;;;8.25;;
58615;SDS011;44385;51.992;4.206;2023-04-24T06:13:56;25.35;;;8.13;;
58615;SDS011;44385;51.992;4.206;2023-04-24T06:16:24;23.30;;;8.55;;
58615;SDS011;44385;51.992;4.206;2023-04-24T06:18:51;25.23;;;8.23;;
58615;SDS011;44385;51.992;4.206;2023-04-24T06:21:17;27.58;;;8.85;;
58615;SDS011;44385;51.992;4.206;2023-04-24T06:23:43;27.75;;;7.82;;
58615;SDS011;44385;51.992;4.206;2023-04-24T06:26:14;29.27;;;7.80;;
58615;SDS011;44385;51.992;4.206;2023-04-24T06:28:40;22.27;;;7.30;;
58615;SDS011;44385;51.992;4.206;2023-04-24T06:31:07;26.00;;;7.47;;
58615;SDS011;44385;51.992;4.206;2023-04-24T06:33:35;19.55;;;5.80;;
58615;SDS011;44385;51.992;4.206;2023-04-24T06:36:01;26.40;;;7.00;;
58615;SDS011;44385;51.992;4.206;2023-04-24T06:38:29;23.08;;;6.53;;
58615;SDS011;44385;51.992;4.206;2023-04-24T06:40:56;23.35;;;5.97;;
58615;SDS011;44385;51.992;4.206;2023-04-24T06:43:22;27.35;;;6.95;;
58615;SDS011;44385;51.992;4.206;2023-04-24T06:45:49;21.33;;;6.60;;
58615;SDS011;44385;51.992;4.206;2023-04-24T06:48:18;22.73;;;5.85;;
58615;SDS011;44385;51.992;4.206;2023-04-24T06:50:46;26.92;;;6.30;;
58615;SDS011;44385;51.992;4.206;2023-04-24T06:53:13;19.17;;;4.90;;
58615;SDS011;44385;51.992;4.206;2023-04-24T06:55:39;20.67;;;5.03;;
58615;SDS011;44385;51.992;4.206;2023-04-24T06:58:06;14.07;;;4.50;;
58615;SDS011;44385;51.992;4.206;2023-04-24T07:00:33;12.68;;;4.40;;
58615;SDS011;44385;51.992;4.206;2023-04-24T07:02:59;16.55;;;4.85;;
58615;SDS011;44385;51.992;4.206;2023-04-24T07:05:26;13.35;;;4.22;;
58615;SDS011;44385;51.992;4.206;2023-04-24T07:07:54;14.02;;;4.40;;
58615;SDS011;44385;51.992;4.206;2023-04-24T07:10:23;16.25;;;5.25;;
58615;SDS011;44385;51.992;4.206;2023-04-24T07:12:52;19.63;;;5.00;;
58615;SDS011;44385;51.992;4.206;2023-04-24T07:15:19;19.55;;;5.28;;
58615;SDS011;44385;51.992;4.206;2023-04-24T07:17:45;15.85;;;5.25;;
58615;SDS011;44385;51.992;4.206;2023-04-24T07:20:12;14.55;;;4.53;;
58615;SDS011;44385;51.992;4.206;2023-04-24T07:22:39;18.30;;;5.30;;
58615;SDS011;44385;51.992;4.206;2023-04-24T07:25:08;20.30;;;4.03;;
58615;SDS011;44385;51.992;4.206;2023-04-24T07:27:34;15.07;;;3.92;;
58615;SDS011;44385;51.992;4.206;2023-04-24T07:30:01;20.17;;;4.80;;
58615;SDS011;44385;51.992;4.206;2023-04-24T07:32:27;14.90;;;4.63;;
58615;SDS011;44385;51.992;4.206;2023-04-24T07:34:54;14.75;;;4.22;;
58615;SDS011;44385;51.992;4.206;2023-04-24T07:37:20;14.93;;;4.55;;
58615;SDS011;44385;51.992;4.206;2023-04-24T07:39:46;14.55;;;4.20;;
58615;SDS011;44385;51.992;4.206;2023-04-24T07:42:14;15.52;;;4.57;;
58615;SDS011;44385;51.992;4.206;2023-04-24T07:44:41;13.93;;;4.50;;
58615;SDS011;44385;51.992;4.206;2023-04-24T07:47:07;14.77;;;4.75;;
58615;SDS011;44385;51.992;4.206;2023-04-24T07:49:34;15.13;;;3.83;;
58615;SDS011;44385;51.992;4.206;2023-04-24T07:52:00;15.93;;;5.00;;
58615;SDS011;44385;51.992;4.206;2023-04-24T07:54:27;17.85;;;4.80;;
58615;SDS011;44385;51.992;4.206;2023-04-24T07:56:54;12.57;;;3.80;;
58615;SDS011;44385;51.992;4.206;2023-04-24T07:59:22;14.35;;;3.60;;
58615;SDS011;44385;51.992;4.206;2023-04-24T08:01:48;9.98;;;3.22;;
58615;SDS011;44385;51.992;4.206;2023-04-24T08:04:19;14.55;;;3.45;;
58615;SDS011;44385;51.992;4.206;2023-04-24T08:06:46;14.07;;;3.30;;
58615;SDS011;44385;51.992;4.206;2023-04-24T08:09:13;9.10;;;3.25;;
58615;SDS011;44385;51.992;4.206;2023-04-24T08:11:39;11.75;;;3.08;;
58615;SDS011;44385;51.992;4.206;2023-04-24T08:14:05;7.38;;;2.50;;
58615;SDS011;44385;51.992;4.206;2023-04-24T08:16:34;8.65;;;2.58;;
58615;SDS011;44385;51.992;4.206;2023-04-24T08:19:00;13.13;;;3.30;;
58615;SDS011;44385;51.992;4.206;2023-04-24T08:21:27;8.45;;;3.28;;
58615;SDS011;44385;51.992;4.206;2023-04-24T08:23:53;12.02;;;3.22;;
58615;SDS011;44385;51.992;4.206;2023-04-24T08:26:20;8.75;;;2.55;;
58615;SDS011;44385;51.992;4.206;2023-04-24T08:28:46;10.15;;;2.78;;
58615;SDS011;44385;51.992;4.206;2023-04-24T08:31:13;8.98;;;2.35;;
58615;SDS011;44385;51.992;4.206;2023-04-24T08:33:41;7.93;;;2.13;;
58615;SDS011;44385;51.992;4.206;2023-04-24T08:36:10;10.05;;;1.75;;
58615;SDS011;44385;51.992;4.206;2023-04-24T08:38:37;6.57;;;1.77;;
58615;SDS011;44385;51.992;4.206;2023-04-24T08:41:04;10.88;;;1.83;;
58615;SDS011;44385;51.992;4.206;2023-04-24T08:43:32;6.35;;;1.60;;
58615;SDS011;44385;51.992;4.206;2023-04-24T08:46:03;7.43;;;2.20;;
58615;SDS011;44385;51.992;4.206;2023-04-24T08:48:30;8.60;;;1.98;;
58615;SDS011;44385;51.992;4.206;2023-04-24T08:50:58;7.03;;;2.40;;
58615;SDS011;44385;51.992;4.206;2023-04-24T08:53:26;10.00;;;2.33;;
58615;SDS011;44385;51.992;4.206;2023-04-24T08:55:53;9.10;;;1.80;;
58615;SDS011;44385;51.992;4.206;2023-04-24T08:58:20;3.00;;;1.60;;
58615;SDS011;44385;51.992;4.206;2023-04-24T09:00:47;5.20;;;1.40;;
58615;SDS011;44385;51.992;4.206;2023-04-24T09:03:14;4.47;;;1.65;;
58615;SDS011;44385;51.992;4.206;2023-04-24T09:05:41;11.32;;;1.92;;
58615;SDS011;44385;51.992;4.206;2023-04-24T09:08:12;9.05;;;1.80;;
58615;SDS011;44385;51.992;4.206;2023-04-24T09:10:42;6.50;;;1.55;;
58615;SDS011;44385;51.992;4.206;2023-04-24T09:13:08;4.45;;;1.23;;
58615;SDS011;44385;51.992;4.206;2023-04-24T09:15:35;10.27;;;1.83;;
58615;SDS011;44385;51.992;4.206;2023-04-24T09:18:02;7.68;;;1.77;;
58615;SDS011;44385;51.992;4.206;2023-04-24T09:20:32;5.95;;;1.63;;
58615;SDS011;44385;51.992;4.206;2023-04-24T09:22:58;7.10;;;1.30;;
58615;SDS011;44385;51.992;4.206;2023-04-24T09:25:26;6.75;;;1.38;;
58615;SDS011;44385;51.992;4.206;2023-04-24T09:27:59;6.75;;;1.42;;
58615;SDS011;44385;51.992;4.206;2023-04-24T09:30:26;5.43;;;1.65;;
58615;SDS011;44385;51.992;4.206;2023-04-24T09:33:00;6.78;;;1.52;;
58615;SDS011;44385;51.992;4.206;2023-04-24T09:35:36;16.13;;;2.13;;
58615;SDS011;44385;51.992;4.206;2023-04-24T09:38:02;9.10;;;1.65;;
58615;SDS011;44385;51.992;4.206;2023-04-24T09:40:30;7.85;;;1.85;;
58615;SDS011;44385;51.992;4.206;2023-04-24T09:42:59;10.95;;;1.42;;
58615;SDS011;44385;51.992;4.206;2023-04-24T09:45:27;7.90;;;1.95;;
58615;SDS011;44385;51.992;4.206;2023-04-24T09:47:54;8.93;;;1.90;;
58615;SDS011;44385;51.992;4.206;2023-04-24T09:50:21;7.47;;;1.35;;
58615;SDS011;44385;51.992;4.206;2023-04-24T09:52:56;7.30;;;1.60;;
58615;SDS011;44385;51.992;4.206;2023-04-24T09:55:23;8.27;;;1.92;;
58615;SDS011;44385;51.992;4.206;2023-04-24T09:57:51;6.68;;;1.73;;
58615;SDS011;44385;51.992;4.206;2023-04-24T10:00:18;9.50;;;1.93;;
58615;SDS011;44385;51.992;4.206;2023-04-24T10:02:51;10.48;;;1.65;;
58615;SDS011;44385;51.992;4.206;2023-04-24T10:05:22;7.20;;;1.75;;
58615;SDS011;44385;51.992;4.206;2023-04-24T10:07:49;7.22;;;1.75;;
58615;SDS011;44385;51.992;4.206;2023-04-24T10:10:16;11.20;;;2.20;;
58615;SDS011;44385;51.992;4.206;2023-04-24T10:12:42;10.45;;;2.70;;
58615;SDS011;44385;51.992;4.206;2023-04-24T10:15:11;10.50;;;2.25;;
58615;SDS011;44385;51.992;4.206;2023-04-24T10:20:05;8.55;;;2.03;;
58615;SDS011;44385;51.992;4.206;2023-04-24T10:22:36;8.80;;;2.00;;
58615;SDS011;44385;51.992;4.206;2023-04-24T10:25:03;10.32;;;2.53;;
58615;SDS011;44385;51.992;4.206;2023-04-24T10:27:38;7.82;;;2.10;;
58615;SDS011;44385;51.992;4.206;2023-04-24T10:30:07;11.15;;;2.08;;
58615;SDS011;44385;51.992;4.206;2023-04-24T10:32:35;9.77;;;1.80;;
58615;SDS011;44385;51.992;4.206;2023-04-24T10:35:07;5.82;;;1.67;;
58615;SDS011;44385;51.992;4.206;2023-04-24T10:37:34;11.13;;;2.40;;
58615;SDS011;44385;51.992;4.206;2023-04-24T10:40:03;4.70;;;1.40;;
58615;SDS011;44385;51.992;4.206;2023-04-24T10:42:32;5.63;;;1.50;;
58615;SDS011;44385;51.992;4.206;2023-04-24T10:44:59;6.13;;;1.65;;
58615;SDS011;44385;51.992;4.206;2023-04-24T10:47:27;6.82;;;1.20;;
58615;SDS011;44385;51.992;4.206;2023-04-24T10:49:59;7.30;;;1.63;;
58615;SDS011;44385;51.992;4.206;2023-04-24T10:52:37;4.03;;;1.38;;
58615;SDS011;44385;51.992;4.206;2023-04-24T10:55:14;7.13;;;1.20;;
58615;SDS011;44385;51.992;4.206;2023-04-24T11:00:24;5.85;;;1.20;;
58615;SDS011;44385;51.992;4.206;2023-04-24T11:02:57;4.78;;;1.45;;
58615;SDS011;44385;51.992;4.206;2023-04-24T11:08:12;5.95;;;1.20;;
58615;SDS011;44385;51.992;4.206;2023-04-24T11:10:43;5.60;;;1.48;;
58615;SDS011;44385;51.992;4.206;2023-04-24T11:13:23;5.72;;;1.60;;
58615;SDS011;44385;51.992;4.206;2023-04-24T11:18:38;3.95;;;1.38;;
58615;SDS011;44385;51.992;4.206;2023-04-24T11:21:10;5.80;;;1.70;;
58615;SDS011;44385;51.992;4.206;2023-04-24T11:23:43;10.15;;;1.77;;
58615;SDS011;44385;51.992;4.206;2023-04-24T11:26:10;4.75;;;1.73;;
58615;SDS011;44385;51.992;4.206;2023-04-24T11:28:43;8.63;;;2.10;;
58615;SDS011;44385;51.992;4.206;2023-04-24T11:33:56;4.97;;;1.60;;
58615;SDS011;44385;51.992;4.206;2023-04-24T11:36:22;8.25;;;2.00;;
58615;SDS011;44385;51.992;4.206;2023-04-24T11:38:50;6.32;;;1.73;;
58615;SDS011;44385;51.992;4.206;2023-04-24T11:41:20;8.32;;;1.90;;
58615;SDS011;44385;51.992;4.206;2023-04-24T11:43:46;9.18;;;2.40;;
58615;SDS011;44385;51.992;4.206;2023-04-24T11:46:16;5.40;;;1.92;;
58615;SDS011;44385;51.992;4.206;2023-04-24T11:48:44;11.00;;;2.80;;
58615;SDS011;44385;51.992;4.206;2023-04-24T11:51:12;5.20;;;1.50;;
58615;SDS011;44385;51.992;4.206;2023-04-24T11:53:41;11.73;;;3.00;;
58615;SDS011;44385;51.992;4.206;2023-04-24T11:56:09;6.88;;;2.10;;
58615;SDS011;44385;51.992;4.206;2023-04-24T11:58:39;9.15;;;2.00;;
58615;SDS011;44385;51.992;4.206;2023-04-24T12:01:05;10.68;;;2.35;;
58615;SDS011;44385;51.992;4.206;2023-04-24T12:03:32;10.82;;;3.13;;
58615;SDS011;44385;51.992;4.206;2023-04-24T12:06:05;13.68;;;2.28;;
58615;SDS011;44385;51.992;4.206;2023-04-24T12:08:33;10.07;;;2.50;;
58615;SDS011;44385;51.992;4.206;2023-04-24T12:10:59;12.57;;;3.03;;
58615;SDS011;44385;51.992;4.206;2023-04-24T12:13:27;9.60;;;2.80;;
58615;SDS011;44385;51.992;4.206;2023-04-24T12:15:57;12.77;;;2.85;;
58615;SDS011;44385;51.992;4.206;2023-04-24T12:18:24;13.80;;;3.30;;
58615;SDS011;44385;51.992;4.206;2023-04-24T12:20:51;14.52;;;3.03;;
58615;SDS011;44385;51.992;4.206;2023-04-24T12:23:32;9.60;;;3.00;;
58615;SDS011;44385;51.992;4.206;2023-04-24T12:25:59;10.45;;;3.17;;
58615;SDS011;44385;51.992;4.206;2023-04-24T12:28:34;11.88;;;2.97;;
58615;SDS011;44385;51.992;4.206;2023-04-24T12:31:00;12.30;;;2.65;;
58615;SDS011;44385;51.992;4.206;2023-04-24T12:33:27;11.40;;;2.38;;
58615;SDS011;44385;51.992;4.206;2023-04-24T12:35:54;8.30;;;2.15;;
58615;SDS011;44385;51.992;4.206;2023-04-24T12:38:21;15.90;;;3.08;;
58615;SDS011;44385;51.992;4.206;2023-04-24T12:41:00;9.90;;;2.67;;
58615;SDS011;44385;51.992;4.206;2023-04-24T12:43:31;18.80;;;3.80;;
58615;SDS011;44385;51.992;4.206;2023-04-24T12:45:58;19.45;;;3.60;;
58615;SDS011;44385;51.992;4.206;2023-04-24T12:48:25;13.05;;;3.50;;
58615;SDS011;44385;51.992;4.206;2023-04-24T12:50:52;15.02;;;3.95;;
58615;SDS011;44385;51.992;4.206;2023-04-24T12:53:19;11.45;;;2.92;;
58615;SDS011;44385;51.992;4.206;2023-04-24T12:55:45;14.43;;;5.20;;
58615;SDS011;44385;51.992;4.206;2023-04-24T12:58:17;11.00;;;3.58;;
58615;SDS011;44385;51.992;4.206;2023-04-24T13:00:45;12.38;;;4.03;;
58615;SDS011;44385;51.992;4.206;2023-04-24T13:03:13;16.52;;;5.13;;
58615;SDS011;44385;51.992;4.206;2023-04-24T13:05:40;14.70;;;4.38;;
58615;SDS011;44385;51.992;4.206;2023-04-24T13:08:07;15.20;;;4.15;;
58615;SDS011;44385;51.992;4.206;2023-04-24T13:10:33;9.55;;;3.65;;
58615;SDS011;44385;51.992;4.206;2023-04-24T13:13:00;17.15;;;4.90;;
58615;SDS011;44385;51.992;4.206;2023-04-24T13:15:26;9.20;;;3.30;;
58615;SDS011;44385;51.992;4.206;2023-04-24T13:17:57;12.53;;;3.50;;
58615;SDS011;44385;51.992;4.206;2023-04-24T13:20:23;12.80;;;3.80;;
58615;SDS011;44385;51.992;4.206;2023-04-24T13:22:50;11.05;;;3.55;;
58615;SDS011;44385;51.992;4.206;2023-04-24T13:25:16;12.65;;;4.07;;
58615;SDS011;44385;51.992;4.206;2023-04-24T13:27:44;14.68;;;4.18;;
58615;SDS011;44385;51.992;4.206;2023-04-24T13:30:11;12.98;;;3.90;;
58615;SDS011;44385;51.992;4.206;2023-04-24T13:32:38;10.23;;;3.33;;
58615;SDS011;44385;51.992;4.206;2023-04-24T13:35:07;12.82;;;3.90;;
58615;SDS011;44385;51.992;4.206;2023-04-24T13:37:33;17.00;;;4.43;;
58615;SDS011;44385;51.992;4.206;2023-04-24T13:40:00;13.18;;;4.10;;
58615;SDS011;44385;51.992;4.206;2023-04-24T13:42:27;14.90;;;5.00;;
58615;SDS011;44385;51.992;4.206;2023-04-24T13:44:55;21.05;;;5.15;;
58615;SDS011;44385;51.992;4.206;2023-04-24T13:47:21;16.58;;;4.28;;
58615;SDS011;44385;51.992;4.206;2023-04-24T13:49:47;12.27;;;4.15;;
58615;SDS011;44385;51.992;4.206;2023-04-24T13:52:20;16.65;;;4.85;;
58615;SDS011;44385;51.992;4.206;2023-04-24T13:54:46;8.57;;;3.55;;
58615;SDS011;44385;51.992;4.206;2023-04-24T13:57:13;14.18;;;4.18;;
58615;SDS011;44385;51.992;4.206;2023-04-24T13:59:40;15.52;;;4.55;;
58615;SDS011;44385;51.992;4.206;2023-04-24T14:02:07;15.20;;;4.22;;
58615;SDS011;44385;51.992;4.206;2023-04-24T14:04:34;15.15;;;4.00;;
58615;SDS011;44385;51.992;4.206;2023-04-24T14:07:01;12.93;;;4.00;;
58615;SDS011;44385;51.992;4.206;2023-04-24T14:09:28;14.10;;;4.40;;
58615;SDS011;44385;51.992;4.206;2023-04-24T14:11:55;13.13;;;4.15;;
58615;SDS011;44385;51.992;4.206;2023-04-24T14:14:22;14.43;;;3.60;;
58615;SDS011;44385;51.992;4.206;2023-04-24T14:16:49;13.50;;;3.47;;
58615;SDS011;44385;51.992;4.206;2023-04-24T14:19:16;10.35;;;4.35;;
58615;SDS011;44385;51.992;4.206;2023-04-24T14:21:42;16.55;;;4.15;;
58615;SDS011;44385;51.992;4.206;2023-04-24T14:24:08;10.88;;;4.55;;
58615;SDS011;44385;51.992;4.206;2023-04-24T14:26:36;9.45;;;3.33;;
58615;SDS011;44385;51.992;4.206;2023-04-24T14:29:03;13.27;;;4.00;;
58615;SDS011;44385;51.992;4.206;2023-04-24T14:31:30;11.48;;;3.17;;
58615;SDS011;44385;51.992;4.206;2023-04-24T14:33:56;13.50;;;3.55;;
58615;SDS011;44385;51.992;4.206;2023-04-24T14:36:23;12.18;;;3.42;;
58615;SDS011;44385;51.992;4.206;2023-04-24T14:38:50;7.95;;;3.33;;
58615;SDS011;44385;51.992;4.206;2023-04-24T14:41:16;10.45;;;3.10;;
58615;SDS011;44385;51.992;4.206;2023-04-24T14:43:44;12.20;;;3.63;;
58615;SDS011;44385;51.992;4.206;2023-04-24T14:46:13;13.50;;;3.63;;
58615;SDS011;44385;51.992;4.206;2023-04-24T14:48:41;17.40;;;4.38;;
58615;SDS011;44385;51.992;4.206;2023-04-24T14:51:08;15.77;;;5.15;;
58615;SDS011;44385;51.992;4.206;2023-04-24T14:53:37;15.30;;;4.53;;